DAUO/ELU METAR and TAF weather

Enter ICAO airport designator
Station Type Date Time Source
DAUO METAR 2019/02/16 03:00 UTC NOAA

DAUO 160300Z 22005KT CAVOK 07/M07 Q1025


Station Type Date Time Source
DAUO Decoded METAR 2019/02/16 03:00 UTC NOAA

El Oued, Algeria (DAUO) 33-30N 006-07E 63M
Feb 15, 2019 - 10:00 PM EST / 2019.02.16 0300 UTC
Wind: from the SW (220 degrees) at 6 MPH (5 KT):0
Visibility: greater than 7 mile(s):0
Temperature: 44 F (7 C)
Dew Point: 19 F (-7 C)
Relative Humidity: 36%
Pressure (altimeter): 30.27 in. Hg (1025 hPa)
ob: DAUO 160300Z 22005KT CAVOK 07/M07 Q1025
cycle: 3

Station Type Date Time Source
DAUO TAF 2017/11/09 18:03 UTC NOAA

TAF DAUO 091700Z 0918/1009 28010KT 9999 SCT033 SCT100 PROB30
TEMPO 0918/0924 28015G25KT 5000 -TSRA FEW036CB


Example: see airport list